createdAt,value
2017-11-07T00:00:20.647Z,5.39
2017-11-07T00:01:20.610Z,5.20
2017-11-07T00:02:20.575Z,5.12
2017-11-07T00:03:20.524Z,4.99
2017-11-07T00:04:20.484Z,4.84
2017-11-07T00:05:20.445Z,4.80
2017-11-07T00:06:20.419Z,4.90
2017-11-07T00:07:20.363Z,5.10
2017-11-07T00:08:20.325Z,5.15
2017-11-07T00:09:20.288Z,5.18
2017-11-07T00:10:20.245Z,5.00
2017-11-07T00:11:20.201Z,4.86
2017-11-07T00:12:20.165Z,4.74
2017-11-07T00:13:20.121Z,4.78
2017-11-07T00:14:20.085Z,4.78
2017-11-07T00:15:20.042Z,4.75
2017-11-07T00:16:20.008Z,4.74
2017-11-07T00:17:19.983Z,4.84
2017-11-07T00:18:19.927Z,4.94
2017-11-07T00:19:19.882Z,5.04
2017-11-07T00:20:19.846Z,5.14
2017-11-07T00:21:19.798Z,5.21
2017-11-07T00:22:19.760Z,5.38
2017-11-07T00:23:19.721Z,5.44
2017-11-07T00:24:19.678Z,5.57
2017-11-07T00:25:19.636Z,5.56
2017-11-07T00:26:19.593Z,5.61
2017-11-07T00:27:19.555Z,5.56
2017-11-07T00:28:19.518Z,5.62
2017-11-07T00:29:19.475Z,5.68
2017-11-07T00:30:19.431Z,5.80
2017-11-07T00:31:19.394Z,5.79
2017-11-07T00:32:19.349Z,5.51
2017-11-07T00:33:19.339Z,5.51
2017-11-07T00:34:19.272Z,5.39
2017-11-07T00:35:19.230Z,5.48
2017-11-07T00:36:19.189Z,5.56
2017-11-07T00:37:19.152Z,5.56
2017-11-07T00:38:19.108Z,5.46
2017-11-07T00:39:19.070Z,5.41
2017-11-07T00:40:19.026Z,5.43
2017-11-07T00:41:18.992Z,5.43
2017-11-07T00:42:18.948Z,5.46
2017-11-07T00:43:18.906Z,5.32
2017-11-07T00:44:18.865Z,5.51
2017-11-07T00:45:18.841Z,5.23
2017-11-07T00:46:18.788Z,5.21
2017-11-07T00:47:18.750Z,5.05
2017-11-07T00:48:18.708Z,5.04
2017-11-07T00:49:18.663Z,5.04
2017-11-07T00:50:18.628Z,5.11
2017-11-07T00:51:18.587Z,5.02
2017-11-07T00:52:18.542Z,5.11
2017-11-07T00:53:18.507Z,4.86
2017-11-07T00:54:18.462Z,4.89
2017-11-07T00:55:18.430Z,4.94
2017-11-07T00:56:18.388Z,4.86
2017-11-07T00:57:18.345Z,4.94
2017-11-07T00:58:18.308Z,4.86
2017-11-07T00:59:18.264Z,4.78
2017-11-07T01:00:18.228Z,4.86
2017-11-07T01:01:18.179Z,4.87
2017-11-07T01:02:18.140Z,5.04
2017-11-07T01:03:18.111Z,5.17
2017-11-07T01:04:18.057Z,5.23
2017-11-07T01:05:18.016Z,5.07
2017-11-07T01:06:17.978Z,4.97
2017-11-07T01:07:17.935Z,5.08
2017-11-07T01:08:17.895Z,5.21
2017-11-07T01:09:17.867Z,5.41
2017-11-07T01:10:17.827Z,5.48
2017-11-07T01:11:17.783Z,5.57
2017-11-07T01:12:17.736Z,5.59
2017-11-07T01:13:17.706Z,5.43
2017-11-07T01:14:17.653Z,5.51
2017-11-07T01:15:17.623Z,5.64
2017-11-07T01:16:17.576Z,5.54
2017-11-07T01:17:17.536Z,5.62
2017-11-07T01:18:17.491Z,5.39
2017-11-07T01:19:17.448Z,5.43
2017-11-07T01:20:17.409Z,5.47
2017-11-07T01:21:17.368Z,5.54
2017-11-07T01:22:17.340Z,5.56
2017-11-07T01:23:17.295Z,5.64
2017-11-07T01:24:17.256Z,5.47
2017-11-07T01:25:17.208Z,5.18
2017-11-07T01:26:17.170Z,4.90
2017-11-07T01:27:17.125Z,5.00
2017-11-07T01:28:17.087Z,5.00
2017-11-07T01:29:17.049Z,5.02
2017-11-07T01:30:17.004Z,5.18
2017-11-07T01:31:16.965Z,4.93
2017-11-07T01:32:16.922Z,4.90
2017-11-07T01:33:16.883Z,4.75
2017-11-07T01:34:16.842Z,4.87
2017-11-07T01:35:16.806Z,5.05
2017-11-07T01:36:16.767Z,5.10
2017-11-07T01:37:16.732Z,5.08
2017-11-07T01:38:16.682Z,5.05
2017-11-07T01:39:16.656Z,5.10
2017-11-07T01:40:16.600Z,5.11
2017-11-07T01:41:16.567Z,4.93
2017-11-07T01:42:16.521Z,4.70
2017-11-07T01:43:16.478Z,4.77
2017-11-07T01:44:16.438Z,4.92
2017-11-07T01:45:16.414Z,4.96
2017-11-07T01:46:16.360Z,4.80
2017-11-07T01:47:16.315Z,4.71
2017-11-07T01:48:16.275Z,4.87
2017-11-07T01:49:16.245Z,4.86
2017-11-07T01:50:16.193Z,4.78
2017-11-07T01:51:16.157Z,4.70
2017-11-07T01:52:16.127Z,4.75
2017-11-07T01:53:16.073Z,4.77
2017-11-07T01:54:16.034Z,4.80
2017-11-07T01:55:15.993Z,4.89
2017-11-07T01:56:15.953Z,4.87
2017-11-07T01:57:15.910Z,5.05
2017-11-07T01:58:15.867Z,5.18
2017-11-07T01:59:15.835Z,5.08
2017-11-07T02:00:15.787Z,4.89
2017-11-07T02:01:15.748Z,4.92
2017-11-07T02:02:15.707Z,4.89
2017-11-07T02:03:15.666Z,4.93
2017-11-07T02:04:15.629Z,4.94
2017-11-07T02:05:15.590Z,4.92
2017-11-07T02:06:15.543Z,5.05
2017-11-07T02:07:15.506Z,4.99
2017-11-07T02:08:15.462Z,4.80
2017-11-07T02:09:15.424Z,5.00
2017-11-07T02:10:15.384Z,5.04
2017-11-07T02:11:15.346Z,5.08
2017-11-07T02:12:15.301Z,4.90
2017-11-07T02:13:15.258Z,5.00
2017-11-07T02:14:15.219Z,5.00
2017-11-07T02:15:15.181Z,4.75
2017-11-07T02:16:15.138Z,4.70
2017-11-07T02:17:15.102Z,4.70
2017-11-07T02:18:15.072Z,4.63
2017-11-07T02:19:15.025Z,4.74
2017-11-07T02:20:14.983Z,4.73
2017-11-07T02:21:14.934Z,4.56
2017-11-07T02:22:14.896Z,4.73
2017-11-07T02:23:14.866Z,4.70
2017-11-07T02:24:14.821Z,4.73
2017-11-07T02:25:14.786Z,4.70
2017-11-07T02:26:14.737Z,4.67
2017-11-07T02:27:14.694Z,4.80
2017-11-07T02:28:14.653Z,4.74
2017-11-07T02:29:14.627Z,4.90
2017-11-07T02:30:14.572Z,4.71
2017-11-07T02:31:14.543Z,4.53
2017-11-07T02:32:14.497Z,4.73
2017-11-07T02:33:14.461Z,4.60
2017-11-07T02:34:14.409Z,4.50
2017-11-07T02:35:14.368Z,4.38
2017-11-07T02:36:14.336Z,4.50
2017-11-07T02:37:14.302Z,4.44
2017-11-07T02:38:14.253Z,4.40
2017-11-07T02:39:14.204Z,4.44
2017-11-07T02:40:14.166Z,4.44
2017-11-07T02:41:14.130Z,4.53
2017-11-07T02:42:14.103Z,4.42
2017-11-07T02:43:14.040Z,4.48
2017-11-07T02:44:13.999Z,4.70
2017-11-07T02:45:13.964Z,4.75
2017-11-07T02:46:13.934Z,4.75
2017-11-07T02:47:13.879Z,4.73
2017-11-07T02:48:13.841Z,4.62
2017-11-07T02:49:13.800Z,4.63
2017-11-07T02:50:13.754Z,4.67
2017-11-07T02:51:13.716Z,4.78
2017-11-07T02:52:13.688Z,4.82
2017-11-07T02:53:13.634Z,4.71
2017-11-07T02:54:13.595Z,4.73
2017-11-07T02:55:13.551Z,4.73
2017-11-07T02:56:13.511Z,4.67
2017-11-07T02:57:13.471Z,4.74
2017-11-07T02:58:13.429Z,4.80
2017-11-07T02:59:13.395Z,4.87
2017-11-07T03:00:13.348Z,4.99
2017-11-07T03:01:13.308Z,5.00
2017-11-07T03:02:13.269Z,4.96
2017-11-07T03:03:13.227Z,5.08
2017-11-07T03:04:13.186Z,5.17
2017-11-07T03:05:13.144Z,4.93
2017-11-07T03:06:13.109Z,4.90
2017-11-07T03:07:13.069Z,4.59
2017-11-07T03:08:13.021Z,4.74
2017-11-07T03:09:12.981Z,4.49
2017-11-07T03:10:12.943Z,4.38
2017-11-07T03:11:12.899Z,4.40
2017-11-07T03:12:12.861Z,4.49
2017-11-07T03:13:12.823Z,4.53
2017-11-07T03:14:12.777Z,4.49
2017-11-07T03:15:12.740Z,4.28
2017-11-07T03:16:12.697Z,4.42
2017-11-07T03:17:12.663Z,4.45
2017-11-07T03:18:12.616Z,4.50
2017-11-07T03:19:12.577Z,4.53
2017-11-07T03:20:12.535Z,4.48
2017-11-07T03:21:12.494Z,4.41
2017-11-07T03:22:12.456Z,4.52
2017-11-07T03:23:12.413Z,4.50
2017-11-07T03:24:12.369Z,4.58
2017-11-07T03:25:12.333Z,4.49
2017-11-07T03:26:12.304Z,4.73
2017-11-07T03:27:12.248Z,4.78
2017-11-07T03:28:12.214Z,4.80
2017-11-07T03:29:12.167Z,4.78
2017-11-07T03:30:12.125Z,4.80
2017-11-07T03:31:12.107Z,4.84
2017-11-07T03:32:12.061Z,4.93
2017-11-07T03:33:12.021Z,4.99
2017-11-07T03:34:11.964Z,5.02
2017-11-07T03:35:11.920Z,4.94
2017-11-07T03:36:11.879Z,4.94
2017-11-07T03:37:11.838Z,4.94
2017-11-07T03:38:11.801Z,4.92
2017-11-07T03:39:11.759Z,4.94
2017-11-07T03:40:11.718Z,4.99
2017-11-07T03:41:11.679Z,5.00
2017-11-07T03:42:11.638Z,5.08
2017-11-07T03:43:11.594Z,5.08
2017-11-07T03:44:11.555Z,5.10
2017-11-07T03:45:11.522Z,5.15
2017-11-07T03:46:11.483Z,5.25
2017-11-07T03:47:11.437Z,5.17
2017-11-07T03:48:11.396Z,5.25
2017-11-07T03:49:11.352Z,5.18
2017-11-07T03:50:11.311Z,5.23
2017-11-07T03:51:11.274Z,5.20
2017-11-07T03:52:11.227Z,5.20
2017-11-07T03:53:11.189Z,5.30
2017-11-07T03:54:11.154Z,5.38
2017-11-07T03:55:11.109Z,5.41
2017-11-07T03:56:11.066Z,5.05
2017-11-07T03:57:11.027Z,5.07
2017-11-07T03:58:11.001Z,5.17
2017-11-07T03:59:10.949Z,5.14
2017-11-07T04:00:10.916Z,4.87
2017-11-07T04:01:10.866Z,4.75
2017-11-07T04:02:10.823Z,4.73
2017-11-07T04:03:10.783Z,4.77
2017-11-07T04:04:10.750Z,4.87
2017-11-07T04:05:10.702Z,4.80
2017-11-07T04:06:10.663Z,4.87
2017-11-07T04:07:10.629Z,4.99
2017-11-07T04:08:10.579Z,5.02
2017-11-07T04:09:10.545Z,5.08
2017-11-07T04:10:10.502Z,5.12
2017-11-07T04:11:10.466Z,5.14
2017-11-07T04:12:10.415Z,5.17
2017-11-07T04:13:10.389Z,5.25
2017-11-07T04:14:10.353Z,5.20
2017-11-07T04:15:10.298Z,5.08
2017-11-07T04:16:10.260Z,4.96
2017-11-07T04:17:10.219Z,4.93
2017-11-07T04:18:10.171Z,4.73
2017-11-07T04:19:10.136Z,4.53
2017-11-07T04:20:10.091Z,4.67
2017-11-07T04:21:10.053Z,4.80
2017-11-07T04:22:10.014Z,4.87
2017-11-07T04:23:09.975Z,4.73
2017-11-07T04:24:09.935Z,4.66
2017-11-07T04:25:09.900Z,4.70
2017-11-07T04:26:09.849Z,4.71
2017-11-07T04:27:09.809Z,4.38
2017-11-07T04:28:09.770Z,4.45
2017-11-07T04:29:09.729Z,4.32
2017-11-07T04:30:09.689Z,4.35
2017-11-07T04:31:09.649Z,4.30
2017-11-07T04:32:09.604Z,4.30
2017-11-07T04:33:09.564Z,4.44
2017-11-07T04:34:09.526Z,4.41
2017-11-07T04:35:09.489Z,4.31
2017-11-07T04:36:09.443Z,4.30
2017-11-07T04:37:09.408Z,4.28
2017-11-07T04:38:09.365Z,4.41
2017-11-07T04:39:09.322Z,4.42
2017-11-07T04:40:09.280Z,4.50
2017-11-07T04:41:09.238Z,4.48
2017-11-07T04:42:09.196Z,4.73
2017-11-07T04:43:09.169Z,4.77
2017-11-07T04:44:09.115Z,4.74
2017-11-07T04:45:09.074Z,4.67
2017-11-07T04:46:09.038Z,4.49
2017-11-07T04:47:08.992Z,4.50
2017-11-07T04:48:08.961Z,4.53
2017-11-07T04:49:08.911Z,4.28
2017-11-07T04:50:08.878Z,4.28
2017-11-07T04:51:08.831Z,4.30
2017-11-07T04:52:08.786Z,4.28
2017-11-07T04:53:08.751Z,4.30
2017-11-07T04:54:08.710Z,4.41
2017-11-07T04:55:08.680Z,4.58
2017-11-07T04:56:08.636Z,4.58
2017-11-07T04:57:08.590Z,4.58
2017-11-07T04:58:08.544Z,4.55
2017-11-07T04:59:08.503Z,4.49
2017-11-07T05:00:08.462Z,4.32
2017-11-07T05:01:08.423Z,4.12
2017-11-07T05:02:08.381Z,4.05
2017-11-07T05:03:08.349Z,3.96
2017-11-07T05:04:08.306Z,3.94
2017-11-07T05:05:08.262Z,4.02
2017-11-07T05:06:08.223Z,4.16
2017-11-07T05:07:08.188Z,4.31
2017-11-07T05:08:08.161Z,4.40
2017-11-07T05:09:08.098Z,4.56
2017-11-07T05:10:08.057Z,4.38
2017-11-07T05:11:08.016Z,4.53
2017-11-07T05:12:07.986Z,4.53
2017-11-07T05:13:07.937Z,4.73
2017-11-07T05:14:07.899Z,4.73
2017-11-07T05:15:07.853Z,4.78
2017-11-07T05:16:07.807Z,4.66
2017-11-07T05:17:07.764Z,4.38
2017-11-07T05:18:07.735Z,4.42
2017-11-07T05:19:07.690Z,4.49
2017-11-07T05:20:07.644Z,4.34
2017-11-07T05:21:07.606Z,4.14
2017-11-07T05:22:07.561Z,4.24
2017-11-07T05:23:07.526Z,4.16
2017-11-07T05:24:07.481Z,4.35
2017-11-07T05:25:07.440Z,4.32
2017-11-07T05:26:07.401Z,4.49
2017-11-07T05:27:07.373Z,4.40
2017-11-07T05:28:07.315Z,4.60
2017-11-07T05:29:07.276Z,4.56
2017-11-07T05:30:07.236Z,4.87
2017-11-07T05:31:07.196Z,4.78
2017-11-07T05:32:07.163Z,4.78
2017-11-07T05:33:07.119Z,4.78
2017-11-07T05:34:07.073Z,4.70
2017-11-07T05:35:07.029Z,4.66
2017-11-07T05:36:06.990Z,4.60
2017-11-07T05:37:06.951Z,4.38
2017-11-07T05:38:06.913Z,4.34
2017-11-07T05:39:06.866Z,4.42
2017-11-07T05:40:06.826Z,4.34
2017-11-07T05:41:06.792Z,3.99
2017-11-07T05:42:06.747Z,3.76
2017-11-07T05:43:06.702Z,3.76
2017-11-07T05:44:06.661Z,3.80
2017-11-07T05:45:06.641Z,3.66
2017-11-07T05:46:06.592Z,3.73
2017-11-07T05:47:06.539Z,3.87
2017-11-07T05:48:06.503Z,3.94
2017-11-07T05:49:06.458Z,3.78
2017-11-07T05:50:06.413Z,3.77
2017-11-07T05:51:06.375Z,3.73
2017-11-07T05:52:06.333Z,3.74
2017-11-07T05:53:06.293Z,3.95
2017-11-07T05:54:06.250Z,3.91
2017-11-07T05:55:06.210Z,3.96
2017-11-07T05:56:06.167Z,4.05
2017-11-07T05:57:06.127Z,3.99
2017-11-07T05:58:06.085Z,3.87
2017-11-07T05:59:06.060Z,3.88
2017-11-07T06:00:06.002Z,3.78
2017-11-07T06:01:05.973Z,3.81
2017-11-07T06:02:05.934Z,3.70
2017-11-07T06:03:05.888Z,3.62
2017-11-07T06:04:05.843Z,3.80
2017-11-07T06:05:05.806Z,3.69
2017-11-07T06:06:05.758Z,3.87
2017-11-07T06:07:05.736Z,3.68
2017-11-07T06:08:05.674Z,3.62
2017-11-07T06:09:05.634Z,3.68
2017-11-07T06:10:05.593Z,3.91
2017-11-07T06:11:05.551Z,3.88
2017-11-07T06:12:05.511Z,3.70
2017-11-07T06:13:05.469Z,3.78
2017-11-07T06:14:05.429Z,3.86
2017-11-07T06:15:05.388Z,3.84
2017-11-07T06:16:05.351Z,4.01
2017-11-07T06:17:05.303Z,4.02
2017-11-07T06:18:05.262Z,4.14
2017-11-07T06:19:05.222Z,4.05
2017-11-07T06:20:05.182Z,4.04
2017-11-07T06:21:05.139Z,3.98
2017-11-07T06:22:05.095Z,3.98
2017-11-07T06:23:05.056Z,3.96
2017-11-07T06:24:05.017Z,4.04
2017-11-07T06:25:04.974Z,3.81
2017-11-07T06:26:04.938Z,3.86
2017-11-07T06:27:04.888Z,3.87
2017-11-07T06:28:04.856Z,3.98
2017-11-07T06:29:04.806Z,3.88
2017-11-07T06:30:04.768Z,4.04
2017-11-07T06:31:04.734Z,4.10
2017-11-07T06:32:04.683Z,4.28
2017-11-07T06:33:04.645Z,4.19
2017-11-07T06:34:04.601Z,4.34
2017-11-07T06:35:04.561Z,4.30
2017-11-07T06:36:04.516Z,4.30
2017-11-07T06:37:04.479Z,4.19
2017-11-07T06:38:04.439Z,4.23
2017-11-07T06:39:04.399Z,4.30
2017-11-07T06:40:04.352Z,4.30
2017-11-07T06:41:04.314Z,4.37
2017-11-07T06:42:04.272Z,4.32
2017-11-07T06:43:04.251Z,4.35
2017-11-07T06:44:04.190Z,4.55
2017-11-07T06:45:04.145Z,4.49
2017-11-07T06:46:04.104Z,4.48
2017-11-07T06:47:04.063Z,4.67
2017-11-07T06:48:04.027Z,4.53
2017-11-07T06:49:03.989Z,4.49
2017-11-07T06:50:03.941Z,4.50
2017-11-07T06:51:03.899Z,4.31
2017-11-07T06:52:03.864Z,4.35
2017-11-07T06:53:03.840Z,4.22
2017-11-07T06:54:03.780Z,4.31
2017-11-07T06:55:03.735Z,4.20
2017-11-07T06:56:03.691Z,4.35
2017-11-07T06:57:03.649Z,4.30
2017-11-07T06:58:03.610Z,4.45
2017-11-07T06:59:03.573Z,4.50
2017-11-07T07:00:03.534Z,4.62
2017-11-07T07:01:03.486Z,4.56
2017-11-07T07:02:03.453Z,4.53
2017-11-07T07:03:03.428Z,4.40
2017-11-07T07:04:03.364Z,4.48
2017-11-07T07:05:03.321Z,4.41
2017-11-07T07:06:03.281Z,4.35
2017-11-07T07:07:03.238Z,4.45
2017-11-07T07:08:03.195Z,4.42
2017-11-07T07:09:03.162Z,4.44
2017-11-07T07:10:03.123Z,4.50
2017-11-07T07:11:03.076Z,4.62
2017-11-07T07:12:03.034Z,4.53
2017-11-07T07:13:02.993Z,4.50
2017-11-07T07:14:02.952Z,4.37
2017-11-07T07:15:02.923Z,4.45
2017-11-07T07:16:02.871Z,4.70
2017-11-07T07:17:02.839Z,4.75
2017-11-07T07:18:02.806Z,4.78
2017-11-07T07:19:02.752Z,4.77
2017-11-07T07:20:02.706Z,4.67
2017-11-07T07:21:03.446Z,4.66
2017-11-07T07:22:02.623Z,4.70
2017-11-07T07:23:02.622Z,4.82
2017-11-07T07:24:02.546Z,4.75
2017-11-07T07:25:02.500Z,4.74
2017-11-07T07:26:02.487Z,4.90
2017-11-07T07:27:02.419Z,4.87
2017-11-07T07:28:02.373Z,4.97
2017-11-07T07:29:02.335Z,5.02
2017-11-07T07:30:02.328Z,5.02
2017-11-07T07:31:02.252Z,4.90
2017-11-07T07:32:02.222Z,4.75
2017-11-07T07:33:02.190Z,4.74
2017-11-07T07:34:02.148Z,4.63
2017-11-07T07:35:02.103Z,4.55
2017-11-07T07:36:02.078Z,4.49
2017-11-07T07:37:02.006Z,4.52
2017-11-07T07:38:01.968Z,4.49
2017-11-07T07:39:01.940Z,4.70
2017-11-07T07:40:01.917Z,4.75
2017-11-07T07:41:01.861Z,4.70
2017-11-07T07:42:01.800Z,4.74
2017-11-07T07:43:01.766Z,4.63
2017-11-07T07:44:01.728Z,4.53
2017-11-07T07:45:01.744Z,4.62
2017-11-07T07:46:01.646Z,4.62
2017-11-07T07:47:01.607Z,4.74
2017-11-07T07:48:01.555Z,4.86
2017-11-07T07:49:01.518Z,4.94
2017-11-07T07:50:01.536Z,4.87
2017-11-07T07:51:01.438Z,4.92
2017-11-07T07:52:01.391Z,4.86
2017-11-07T07:53:01.352Z,4.89
2017-11-07T07:54:01.328Z,5.05
2017-11-07T07:55:01.277Z,5.07
2017-11-07T07:56:01.230Z,4.97
2017-11-07T07:57:01.188Z,4.94
2017-11-07T07:58:01.157Z,4.82
2017-11-07T07:59:01.116Z,4.78
2017-11-07T08:00:01.080Z,4.92
2017-11-07T08:01:01.028Z,5.00
2017-11-07T08:02:00.987Z,5.05
2017-11-07T08:03:00.945Z,5.12
2017-11-07T08:04:00.911Z,5.08
2017-11-07T08:05:00.870Z,5.12
2017-11-07T08:06:00.827Z,5.21
2017-11-07T08:07:00.795Z,5.29
2017-11-07T08:08:00.756Z,5.35
2017-11-07T08:09:00.706Z,5.43
2017-11-07T08:10:00.663Z,5.43
2017-11-07T08:11:00.620Z,5.47
2017-11-07T08:12:00.575Z,5.62
2017-11-07T08:13:00.548Z,5.41
2017-11-07T08:14:00.516Z,5.61
2017-11-07T08:15:00.458Z,5.65
2017-11-07T08:16:00.412Z,5.54
2017-11-07T08:17:00.377Z,5.68
2017-11-07T08:18:00.332Z,5.68
2017-11-07T08:19:00.291Z,5.75
2017-11-07T08:20:00.251Z,5.79
2017-11-07T08:21:00.221Z,5.84
2017-11-07T08:22:00.175Z,5.86
2017-11-07T08:23:00.139Z,5.89
2017-11-07T08:24:00.087Z,5.94
2017-11-07T08:25:00.049Z,5.86
2017-11-07T08:26:00.007Z,5.98
2017-11-07T08:26:59.972Z,6.05
2017-11-07T08:27:59.932Z,6.05
2017-11-07T08:28:59.885Z,6.01
2017-11-07T08:29:59.844Z,6.16
2017-11-07T08:30:59.804Z,6.14
2017-11-07T08:31:59.763Z,6.19
2017-11-07T08:32:59.724Z,6.17
2017-11-07T08:33:59.693Z,6.04
2017-11-07T08:34:59.645Z,6.27
2017-11-07T08:35:59.622Z,6.17
2017-11-07T08:36:59.562Z,6.17
2017-11-07T08:37:59.522Z,6.31
2017-11-07T08:38:59.512Z,6.41
2017-11-07T08:39:59.442Z,6.31
2017-11-07T08:40:59.410Z,6.42
2017-11-07T08:41:59.359Z,6.52
2017-11-07T08:42:59.329Z,6.56
2017-11-07T08:43:59.297Z,6.57
2017-11-07T08:44:59.262Z,6.66
2017-11-07T08:45:59.207Z,6.70
2017-11-07T08:46:59.165Z,6.74
2017-11-07T08:47:59.118Z,6.74
2017-11-07T08:48:59.085Z,6.74
2017-11-07T08:49:59.035Z,6.74
2017-11-07T08:50:59.009Z,6.84
2017-11-07T08:51:58.953Z,6.93
2017-11-07T08:52:58.914Z,6.92
2017-11-07T08:53:58.882Z,6.88
2017-11-07T08:54:58.835Z,6.88
2017-11-07T08:55:58.804Z,6.99
2017-11-07T08:56:58.756Z,6.87
2017-11-07T08:57:58.716Z,6.92
2017-11-07T08:58:58.673Z,6.95
2017-11-07T08:59:58.642Z,6.92
2017-11-07T09:00:58.599Z,6.92
2017-11-07T09:01:58.559Z,7.03
2017-11-07T09:02:58.525Z,7.10
2017-11-07T09:03:58.478Z,7.23
2017-11-07T09:04:58.441Z,7.21
2017-11-07T09:05:58.399Z,7.20
2017-11-07T09:06:58.360Z,7.18
2017-11-07T09:07:58.324Z,7.28
2017-11-07T09:08:58.295Z,7.29
2017-11-07T09:09:58.249Z,7.29
2017-11-07T09:10:58.207Z,7.23
2017-11-07T09:11:58.168Z,7.29
2017-11-07T09:12:58.126Z,7.40
2017-11-07T09:13:58.080Z,7.40
2017-11-07T09:14:58.036Z,7.38
2017-11-07T09:15:58.024Z,7.42
2017-11-07T09:16:57.964Z,7.40
2017-11-07T09:17:57.920Z,7.42
2017-11-07T09:18:57.881Z,7.39
2017-11-07T09:19:57.849Z,7.51
2017-11-07T09:20:57.797Z,7.50
2017-11-07T09:21:57.757Z,7.51
2017-11-07T09:22:57.733Z,7.42
2017-11-07T09:23:57.693Z,7.50
2017-11-07T09:24:57.645Z,7.54
2017-11-07T09:25:57.597Z,7.61
2017-11-07T09:26:57.562Z,7.60
2017-11-07T09:27:57.520Z,7.72
2017-11-07T09:28:57.483Z,7.66
2017-11-07T09:29:57.442Z,7.66
2017-11-07T09:30:57.397Z,7.72
2017-11-07T09:31:57.360Z,7.69
2017-11-07T09:32:57.327Z,7.77
2017-11-07T09:33:57.286Z,7.72
2017-11-07T09:34:57.255Z,7.72
2017-11-07T09:35:57.207Z,7.77
2017-11-07T09:36:57.160Z,7.76
2017-11-07T09:37:57.129Z,7.82
2017-11-07T09:38:57.081Z,7.90
2017-11-07T09:39:57.046Z,7.83
2017-11-07T09:40:57.022Z,7.83
2017-11-07T09:41:56.962Z,7.87
2017-11-07T09:42:56.928Z,7.97
2017-11-07T09:43:56.890Z,7.95
2017-11-07T09:44:56.841Z,7.88
2017-11-07T09:45:56.809Z,8.00
2017-11-07T09:46:56.767Z,8.06
2017-11-07T09:47:56.750Z,8.09
2017-11-07T09:48:56.681Z,8.13
2017-11-07T09:49:56.656Z,8.18
2017-11-07T09:50:56.639Z,8.18
2017-11-07T09:51:56.653Z,8.24
2017-11-07T09:52:56.525Z,8.28
2017-11-07T09:53:56.488Z,8.38
2017-11-07T09:54:56.445Z,8.34
2017-11-07T09:55:56.417Z,8.49
2017-11-07T09:56:56.372Z,8.48
2017-11-07T09:57:56.327Z,8.52
2017-11-07T09:58:56.334Z,8.60
2017-11-07T09:59:56.267Z,8.56
2017-11-07T10:00:56.209Z,8.73
2017-11-07T10:01:56.177Z,8.66
2017-11-07T10:02:56.235Z,8.71
2017-11-07T10:03:56.119Z,8.64
2017-11-07T10:04:56.173Z,8.69
2017-11-07T10:05:56.080Z,8.71
2017-11-07T10:06:55.979Z,8.78
2017-11-07T10:07:56.007Z,8.84
2017-11-07T10:08:55.896Z,8.94
2017-11-07T10:09:55.861Z,9.00
2017-11-07T10:10:55.827Z,8.97
2017-11-07T10:11:55.896Z,9.10
2017-11-07T10:12:56.814Z,9.00
2017-11-07T10:13:55.692Z,9.03
2017-11-07T10:14:55.725Z,9.18
2017-11-07T10:15:55.658Z,9.21
2017-11-07T10:16:55.614Z,9.22
2017-11-07T10:17:55.761Z,9.26
2017-11-07T10:18:55.526Z,9.28
2017-11-07T10:19:55.462Z,9.28
2017-11-07T10:20:55.430Z,9.28
2017-11-07T10:21:55.381Z,9.25
2017-11-07T10:22:55.352Z,9.39
2017-11-07T10:23:55.306Z,9.44
2017-11-07T10:24:55.307Z,9.44
2017-11-07T10:25:55.231Z,9.31
2017-11-07T10:26:55.200Z,9.34
2017-11-07T10:27:55.150Z,9.37
2017-11-07T10:28:55.121Z,9.31
2017-11-07T10:29:55.114Z,9.39
2017-11-07T10:30:55.038Z,9.44
2017-11-07T10:31:54.993Z,9.41
2017-11-07T10:32:54.956Z,9.32
2017-11-07T10:33:54.915Z,9.41
2017-11-07T10:34:54.880Z,9.44
2017-11-07T10:35:54.847Z,9.48
2017-11-07T10:36:54.803Z,9.34
2017-11-07T10:37:54.762Z,9.28
2017-11-07T10:38:54.734Z,9.26
2017-11-07T10:39:54.691Z,9.32
2017-11-07T10:40:54.650Z,9.48
2017-11-07T10:41:54.629Z,9.47
2017-11-07T10:42:54.563Z,9.50
2017-11-07T10:43:54.527Z,9.58
2017-11-07T10:44:54.501Z,9.47
2017-11-07T10:45:54.452Z,9.51
2017-11-07T10:46:54.427Z,9.44
2017-11-07T10:47:54.377Z,9.48
2017-11-07T10:48:54.341Z,9.51
2017-11-07T10:49:54.303Z,9.50
2017-11-07T10:50:54.265Z,9.48
2017-11-07T10:51:54.230Z,9.56
2017-11-07T10:52:54.185Z,9.61
2017-11-07T10:53:54.214Z,9.56
2017-11-07T10:54:54.102Z,9.46
2017-11-07T10:55:54.074Z,9.62
2017-11-07T10:56:54.029Z,9.68
2017-11-07T10:57:53.987Z,9.73
2017-11-07T10:58:53.944Z,9.80
2017-11-07T10:59:53.911Z,9.92
2017-11-07T11:00:53.879Z,9.94
2017-11-07T11:01:53.861Z,9.99
2017-11-07T11:02:53.792Z,10.07
2017-11-07T11:03:53.749Z,9.97
2017-11-07T11:04:53.715Z,10.07
2017-11-07T11:05:53.690Z,10.01
2017-11-07T11:06:53.641Z,10.02
2017-11-07T11:07:53.596Z,9.94
2017-11-07T11:08:53.565Z,10.02
2017-11-07T11:09:53.526Z,10.04
2017-11-07T11:10:53.484Z,10.04
2017-11-07T11:11:53.455Z,10.12
2017-11-07T11:12:53.443Z,10.05
2017-11-07T11:13:53.363Z,10.10
2017-11-07T11:14:53.331Z,10.07
2017-11-07T11:15:53.304Z,9.95
2017-11-07T11:16:53.251Z,9.97
2017-11-07T11:17:53.219Z,9.92
2017-11-07T11:18:53.178Z,9.82
2017-11-07T11:19:53.132Z,9.80
2017-11-07T11:20:53.101Z,9.84
2017-11-07T11:21:53.061Z,9.91
2017-11-07T11:22:53.022Z,10.09
2017-11-07T11:23:52.983Z,10.02
2017-11-07T11:24:52.941Z,10.05
2017-11-07T11:25:52.902Z,10.12
2017-11-07T11:26:52.871Z,10.09
2017-11-07T11:27:52.826Z,10.01
2017-11-07T11:28:52.804Z,10.16
2017-11-07T11:29:52.748Z,10.26
2017-11-07T11:30:52.712Z,10.23
2017-11-07T11:31:52.674Z,10.17
2017-11-07T11:32:52.640Z,9.92
2017-11-07T11:33:52.596Z,9.79
2017-11-07T11:34:52.565Z,9.95
2017-11-07T11:35:52.517Z,10.01
2017-11-07T11:36:52.489Z,10.05
2017-11-07T11:37:52.440Z,10.02
2017-11-07T11:38:52.456Z,10.02
2017-11-07T11:39:52.371Z,10.09
2017-11-07T11:40:52.330Z,9.95
2017-11-07T11:41:52.288Z,9.87
2017-11-07T11:42:52.253Z,9.86
2017-11-07T11:43:52.221Z,9.86
2017-11-07T11:44:52.177Z,9.95
2017-11-07T11:45:52.136Z,9.94
2017-11-07T11:46:52.094Z,9.99
2017-11-07T11:47:52.061Z,9.98
2017-11-07T11:48:52.029Z,10.05
2017-11-07T11:49:51.983Z,9.83
2017-11-07T11:50:51.942Z,9.89
2017-11-07T11:51:51.901Z,9.97
2017-11-07T11:52:51.867Z,9.99
2017-11-07T11:53:51.828Z,9.98
2017-11-07T11:54:51.796Z,9.94
2017-11-07T11:55:51.765Z,9.95
2017-11-07T11:56:51.714Z,9.87
2017-11-07T11:57:51.679Z,9.86
2017-11-07T11:58:51.637Z,9.89
2017-11-07T11:59:51.597Z,9.80
2017-11-07T12:00:51.557Z,9.82
2017-11-07T12:01:51.528Z,9.77
2017-11-07T12:02:51.480Z,9.68
2017-11-07T12:03:51.457Z,9.69
2017-11-07T12:04:51.410Z,9.76
2017-11-07T12:05:51.366Z,9.68
2017-11-07T12:06:51.332Z,9.72
2017-11-07T12:07:51.294Z,9.66
2017-11-07T12:08:51.251Z,9.66
2017-11-07T12:09:51.212Z,9.77
2017-11-07T12:10:51.171Z,9.79
2017-11-07T12:11:51.148Z,9.84
2017-11-07T12:12:51.122Z,9.80
2017-11-07T12:13:51.059Z,9.77
2017-11-07T12:14:51.015Z,9.82
2017-11-07T12:15:50.981Z,9.77
2017-11-07T12:16:50.946Z,9.91
2017-11-07T12:17:50.921Z,9.87
2017-11-07T12:18:50.875Z,9.80
2017-11-07T12:19:50.827Z,9.80
2017-11-07T12:20:50.814Z,9.79
2017-11-07T12:21:50.756Z,9.79
2017-11-07T12:22:50.719Z,9.83
2017-11-07T12:23:50.668Z,9.83
2017-11-07T12:24:50.634Z,9.76
2017-11-07T12:25:50.603Z,9.68
2017-11-07T12:26:50.556Z,9.61
2017-11-07T12:27:50.529Z,9.59
2017-11-07T12:28:50.487Z,9.72
2017-11-07T12:29:50.440Z,9.56
2017-11-07T12:30:50.432Z,9.58
2017-11-07T12:31:50.378Z,9.64
2017-11-07T12:32:50.321Z,9.58
2017-11-07T12:33:50.296Z,9.56
2017-11-07T12:34:50.256Z,9.56
2017-11-07T12:35:50.217Z,9.50
2017-11-07T12:36:50.170Z,9.56
2017-11-07T12:37:50.137Z,9.59
2017-11-07T12:38:50.118Z,9.65
2017-11-07T12:39:50.054Z,9.51
2017-11-07T12:40:50.036Z,9.62
2017-11-07T12:41:49.973Z,9.55
2017-11-07T12:42:49.949Z,9.68
2017-11-07T12:43:49.898Z,9.64
2017-11-07T12:44:49.869Z,9.61
2017-11-07T12:45:49.833Z,9.47
2017-11-07T12:46:49.805Z,9.54
2017-11-07T12:47:49.742Z,9.56
2017-11-07T12:48:49.712Z,9.65
2017-11-07T12:49:49.669Z,9.72
2017-11-07T12:50:49.625Z,9.68
2017-11-07T12:51:49.600Z,9.79
2017-11-07T12:52:49.560Z,9.73
2017-11-07T12:53:49.516Z,9.68
2017-11-07T12:54:49.477Z,9.69
2017-11-07T12:55:49.487Z,9.73
2017-11-07T12:56:49.394Z,9.66
2017-11-07T12:57:49.366Z,9.79
2017-11-07T12:58:49.317Z,9.74
2017-11-07T12:59:49.316Z,9.84
2017-11-07T13:00:49.256Z,9.82
2017-11-07T13:01:49.203Z,9.82
2017-11-07T13:02:49.162Z,9.83
2017-11-07T13:03:49.123Z,9.77
2017-11-07T13:04:49.085Z,9.74
2017-11-07T13:05:49.050Z,9.68
2017-11-07T13:06:49.027Z,9.66
2017-11-07T13:07:48.971Z,9.72
2017-11-07T13:08:48.938Z,9.69
2017-11-07T13:09:48.899Z,9.73
2017-11-07T13:10:48.856Z,9.69
2017-11-07T13:11:48.824Z,9.58
2017-11-07T13:12:48.785Z,9.59
2017-11-07T13:13:48.748Z,9.65
2017-11-07T13:14:48.719Z,9.56
2017-11-07T13:15:48.665Z,9.69
2017-11-07T13:16:48.635Z,9.72